< < Back
Terminal Aerodrome Forecast


Current Version              Previous Versions:   1  2  3  4  5  6  7  8  9  

Terminal Aerodrome Forecast

051
FTUS44 KBMX 261004 AAB
TAFANB
TAF AMD
KANB 261004Z 2610/2706 04005KT P6SM OVC008
     FM261500 13008KT P6SM SCT025
     FM261700 15008KT 6SM SHRA VCTS BKN040CB
     FM261900 16008KT 2SM -TSRA BKN025CB
     FM262300 14004KT P6SM OVC050=

Latest METAR

405
SAUS70 KWBC 261100 RRD
MTRANB
METAR KANB 261053Z AUTO 14007KT 10SM OVC014 23/21 A3016 RMK AO2 SLP208
T02280206


USA.gov is the U.S. government's official web portal to all federal, state and local government web resources and services.